createdAt,value
2023-05-14T00:00:47.441Z,24.40
2023-05-14T00:03:49.675Z,25.83
2023-05-14T00:06:51.947Z,23.43
2023-05-14T00:09:54.075Z,25.20
2023-05-14T00:12:56.252Z,23.80
2023-05-14T00:15:58.588Z,22.70
2023-05-14T00:19:01.721Z,24.97
2023-05-14T00:22:04.024Z,25.33
2023-05-14T00:25:07.862Z,24.20
2023-05-14T00:28:16.214Z,21.47
2023-05-14T00:31:19.346Z,25.07
2023-05-14T00:34:21.821Z,22.30
2023-05-14T00:37:24.006Z,25.87
2023-05-14T00:40:27.305Z,24.00
2023-05-14T00:43:29.589Z,24.37
2023-05-14T00:46:32.227Z,22.83
2023-05-14T00:49:36.386Z,25.87
2023-05-14T00:52:44.312Z,23.20
2023-05-14T00:55:48.196Z,24.13
2023-05-14T00:58:50.356Z,24.23
2023-05-14T01:01:53.012Z,23.20
2023-05-14T01:04:55.889Z,23.30
2023-05-14T01:08:07.235Z,24.17
2023-05-14T01:11:19.877Z,24.33
2023-05-14T01:14:32.862Z,25.63
2023-05-14T01:17:42.594Z,24.27
2023-05-14T01:20:50.845Z,24.30
2023-05-14T01:23:53.080Z,22.13
2023-05-14T01:27:04.334Z,24.63
2023-05-14T01:30:25.300Z,24.90
2023-05-14T01:33:31.096Z,24.93
2023-05-14T01:36:49.294Z,25.17
2023-05-14T01:40:09.314Z,26.63
2023-05-14T01:43:30.602Z,24.93
2023-05-14T01:46:39.653Z,25.07
2023-05-14T01:49:44.105Z,22.90
2023-05-14T01:52:48.893Z,20.57
2023-05-14T01:55:51.298Z,22.00
2023-05-14T01:58:53.530Z,20.30
2023-05-14T02:01:56.411Z,20.97
2023-05-14T02:04:58.644Z,20.80
2023-05-14T02:08:01.009Z,21.90
2023-05-14T02:11:03.406Z,21.23
2023-05-14T02:14:06.014Z,19.70
2023-05-14T02:17:09.146Z,18.20
2023-05-14T02:20:11.811Z,18.00
2023-05-14T02:23:14.081Z,18.63
2023-05-14T02:26:18.009Z,19.53
2023-05-14T02:29:20.621Z,20.23
2023-05-14T02:32:22.964Z,19.60
2023-05-14T02:35:27.082Z,18.00
2023-05-14T02:38:30.523Z,18.07
2023-05-14T02:41:32.710Z,17.87
2023-05-14T02:44:34.813Z,17.83
2023-05-14T02:47:38.247Z,17.77
2023-05-14T02:50:40.636Z,19.20
2023-05-14T02:53:43.106Z,17.47
2023-05-14T02:56:45.473Z,18.80
2023-05-14T02:59:47.687Z,15.37
2023-05-14T03:02:50.474Z,17.60
2023-05-14T03:06:02.081Z,16.70
2023-05-14T03:09:18.191Z,17.07
2023-05-14T03:12:24.186Z,13.50
2023-05-14T03:15:26.846Z,20.20
2023-05-14T03:18:30.910Z,19.77
2023-05-14T03:21:33.306Z,18.23
2023-05-14T03:24:39.343Z,19.03
2023-05-14T03:27:41.911Z,18.73
2023-05-14T03:30:44.058Z,17.13
2023-05-14T03:33:46.828Z,18.27
2023-05-14T03:36:49.008Z,19.10
2023-05-14T03:39:51.358Z,18.07
2023-05-14T03:42:53.553Z,18.47
2023-05-14T03:45:55.894Z,18.80
2023-05-14T03:48:58.423Z,17.00
2023-05-14T03:52:00.783Z,17.53
2023-05-14T03:55:03.032Z,17.80
2023-05-14T03:58:11.141Z,15.80
2023-05-14T04:01:13.357Z,15.60
2023-05-14T04:04:15.663Z,17.53
2023-05-14T04:07:18.700Z,15.83
2023-05-14T04:10:20.852Z,14.50
2023-05-14T04:13:23.108Z,14.57
2023-05-14T04:16:25.277Z,13.60
2023-05-14T04:19:27.514Z,13.70
2023-05-14T04:22:29.552Z,13.60
2023-05-14T04:25:31.776Z,12.93
2023-05-14T04:28:33.902Z,14.90
2023-05-14T04:31:36.808Z,15.13
2023-05-14T04:34:38.995Z,14.50
2023-05-14T04:37:41.672Z,13.23
2023-05-14T04:40:43.825Z,13.53
2023-05-14T04:43:49.991Z,14.00
2023-05-14T04:46:53.563Z,13.63
2023-05-14T04:49:55.958Z,13.73
2023-05-14T04:52:58.727Z,13.23
2023-05-14T04:56:00.995Z,13.70
2023-05-14T04:59:03.123Z,12.70
2023-05-14T05:02:05.327Z,12.33
2023-05-14T05:05:07.764Z,12.83
2023-05-14T05:08:12.075Z,13.20
2023-05-14T05:11:15.192Z,13.37
2023-05-14T05:14:18.370Z,14.10
2023-05-14T05:17:22.151Z,12.77
2023-05-14T05:20:25.619Z,14.40
2023-05-14T05:23:28.760Z,11.93
2023-05-14T05:26:32.180Z,13.70
2023-05-14T05:29:35.091Z,12.27
2023-05-14T05:32:44.781Z,13.33
2023-05-14T05:36:00.254Z,14.97
2023-05-14T05:39:22.764Z,14.77
2023-05-14T05:42:27.090Z,12.70
2023-05-14T05:45:29.617Z,12.67
2023-05-14T05:48:43.887Z,13.10
2023-05-14T05:51:54.576Z,12.07
2023-05-14T05:55:11.617Z,12.03
2023-05-14T05:58:18.208Z,11.60
2023-05-14T06:01:30.672Z,11.33
2023-05-14T06:04:47.752Z,10.40
2023-05-14T06:07:57.259Z,10.67
2023-05-14T06:11:01.149Z,10.83
2023-05-14T06:14:03.799Z,9.80
2023-05-14T06:17:06.174Z,10.63
2023-05-14T06:20:09.392Z,11.10
2023-05-14T06:23:13.066Z,11.63
2023-05-14T06:26:16.696Z,13.27
2023-05-14T06:29:20.324Z,12.97
2023-05-14T06:32:24.781Z,13.03
2023-05-14T06:35:27.268Z,13.97
2023-05-14T06:38:33.623Z,13.00
2023-05-14T06:41:37.003Z,14.03
2023-05-14T06:44:39.271Z,14.83
2023-05-14T06:47:41.701Z,16.10
2023-05-14T06:50:44.580Z,15.60
2023-05-14T06:53:51.211Z,17.27
2023-05-14T06:56:54.906Z,18.67
2023-05-14T07:00:03.035Z,19.83
2023-05-14T07:03:13.911Z,17.43
2023-05-14T07:06:23.853Z,16.63
2023-05-14T07:09:43.730Z,15.07
2023-05-14T07:12:48.483Z,14.43
2023-05-14T07:15:51.857Z,14.20
2023-05-14T07:18:54.527Z,12.60
2023-05-14T07:21:58.110Z,13.60
2023-05-14T07:25:00.531Z,15.73
2023-05-14T07:28:03.040Z,16.77
2023-05-14T07:31:09.896Z,16.83
2023-05-14T07:34:14.154Z,15.40
2023-05-14T07:37:25.252Z,14.37
2023-05-14T07:40:41.861Z,15.73
2023-05-14T07:43:47.788Z,12.60
2023-05-14T07:46:51.846Z,11.60
2023-05-14T07:49:57.096Z,12.17
2023-05-14T07:52:59.676Z,10.40
2023-05-14T07:56:03.094Z,10.07
2023-05-14T07:59:07.406Z,9.30
2023-05-14T08:02:13.482Z,8.10
2023-05-14T08:05:19.404Z,7.60
2023-05-14T08:08:32.670Z,7.87
2023-05-14T08:11:51.284Z,7.37
2023-05-14T08:14:55.838Z,6.97
2023-05-14T08:18:04.082Z,6.87
2023-05-14T08:21:06.770Z,6.33
2023-05-14T08:24:09.347Z,6.53
2023-05-14T08:27:14.186Z,5.83
2023-05-14T08:30:19.482Z,5.83
2023-05-14T08:33:22.810Z,5.70
2023-05-14T08:36:25.594Z,6.13
2023-05-14T08:39:28.233Z,6.10
2023-05-14T08:42:32.139Z,6.10
2023-05-14T08:45:35.782Z,5.27
2023-05-14T08:48:43.869Z,5.70
2023-05-14T08:51:51.198Z,5.47
2023-05-14T08:54:54.557Z,5.63
2023-05-14T08:57:57.343Z,5.33
2023-05-14T09:01:00.640Z,5.03
2023-05-14T09:04:08.881Z,5.53
2023-05-14T09:07:11.895Z,5.10
2023-05-14T09:10:16.018Z,5.30
2023-05-14T09:13:18.643Z,5.33
2023-05-14T09:16:22.157Z,5.40
2023-05-14T09:19:24.736Z,5.63
2023-05-14T09:22:32.175Z,5.00
2023-05-14T09:25:36.832Z,5.17
2023-05-14T09:28:42.332Z,5.57
2023-05-14T09:31:46.253Z,6.23
2023-05-14T09:34:48.663Z,6.47
2023-05-14T09:37:53.602Z,5.60
2023-05-14T09:40:56.439Z,5.93
2023-05-14T09:43:59.441Z,6.10
2023-05-14T09:47:02.453Z,6.13
2023-05-14T09:50:06.263Z,5.87
2023-05-14T09:53:08.863Z,5.70
2023-05-14T09:56:11.462Z,5.87
2023-05-14T09:59:14.019Z,5.60
2023-05-14T10:02:30.106Z,5.37
2023-05-14T10:05:37.077Z,4.43
2023-05-14T10:08:44.628Z,4.70
2023-05-14T10:11:52.951Z,4.60
2023-05-14T10:14:58.132Z,3.60
2023-05-14T10:18:44.264Z,4.40
2023-05-14T10:22:34.566Z,4.03
2023-05-14T10:25:39.189Z,4.03
2023-05-14T10:28:42.293Z,4.37
2023-05-14T10:31:53.432Z,4.17
2023-05-14T10:34:55.931Z,4.03
2023-05-14T10:37:59.796Z,3.90
2023-05-14T10:41:08.117Z,3.90
2023-05-14T10:44:11.809Z,4.13
2023-05-14T10:47:16.651Z,4.13
2023-05-14T10:50:19.644Z,4.50
2023-05-14T10:53:49.172Z,4.00
2023-05-14T10:56:54.156Z,5.03
2023-05-14T10:59:58.058Z,4.97
2023-05-14T11:03:00.884Z,5.27
2023-05-14T11:06:05.154Z,4.90
2023-05-14T11:09:08.028Z,4.80
2023-05-14T11:12:10.632Z,4.90
2023-05-14T11:15:16.346Z,5.90
2023-05-14T11:18:33.305Z,5.80
2023-05-14T11:21:53.145Z,6.13
2023-05-14T11:24:58.704Z,6.40
2023-05-14T11:28:13.703Z,6.60
2023-05-14T11:31:18.819Z,6.57
2023-05-14T11:34:22.740Z,6.47
2023-05-14T11:37:25.025Z,6.67
2023-05-14T11:40:27.469Z,5.47
2023-05-14T11:43:30.967Z,6.03
2023-05-14T11:46:33.133Z,6.27
2023-05-14T11:49:38.758Z,5.63
2023-05-14T11:52:41.942Z,5.37
2023-05-14T11:55:44.251Z,5.00
2023-05-14T11:58:49.860Z,5.10
2023-05-14T12:01:55.428Z,4.80
2023-05-14T12:04:58.503Z,4.70
2023-05-14T12:08:00.901Z,5.50
2023-05-14T12:11:03.738Z,5.53
2023-05-14T12:14:16.968Z,5.30
2023-05-14T12:17:21.765Z,5.20
2023-05-14T12:20:24.452Z,5.20
2023-05-14T12:23:31.177Z,5.07
2023-05-14T12:26:34.853Z,6.40
2023-05-14T12:29:39.510Z,4.93
2023-05-14T12:32:42.004Z,6.03
2023-05-14T12:35:45.345Z,5.97
2023-05-14T12:38:47.669Z,5.50
2023-05-14T12:41:49.816Z,6.90
2023-05-14T12:44:52.063Z,8.40
2023-05-14T12:47:54.826Z,8.80
2023-05-14T12:50:58.195Z,8.23
2023-05-14T12:54:00.748Z,9.17
2023-05-14T12:57:04.462Z,10.00
2023-05-14T13:00:09.903Z,9.63
2023-05-14T13:03:14.415Z,10.47
2023-05-14T13:06:16.849Z,10.17
2023-05-14T13:09:19.089Z,8.87
2023-05-14T13:12:21.447Z,9.60
2023-05-14T13:15:23.972Z,8.57
2023-05-14T13:18:26.995Z,9.00
2023-05-14T13:21:29.708Z,8.73
2023-05-14T13:24:31.887Z,8.90
2023-05-14T13:27:36.172Z,8.43
2023-05-14T13:30:38.810Z,8.80
2023-05-14T13:33:42.843Z,8.00
2023-05-14T13:36:47.395Z,7.67
2023-05-14T13:39:51.290Z,8.30
2023-05-14T13:42:56.998Z,7.23
2023-05-14T13:46:07.147Z,7.83
2023-05-14T13:49:24.401Z,8.43
2023-05-14T13:52:27.620Z,7.67
2023-05-14T13:56:06.953Z,8.33
2023-05-14T13:59:10.446Z,9.20
2023-05-14T14:02:12.940Z,8.53
2023-05-14T14:05:15.688Z,8.70
2023-05-14T14:08:24.017Z,9.00
2023-05-14T14:11:27.354Z,8.97
2023-05-14T14:14:30.028Z,8.23
2023-05-14T14:17:34.131Z,9.00
2023-05-14T14:20:36.528Z,9.47
2023-05-14T14:23:38.780Z,7.83
2023-05-14T14:26:41.006Z,8.00
2023-05-14T14:29:43.742Z,8.40
2023-05-14T14:32:47.356Z,7.40
2023-05-14T14:35:49.511Z,7.67
2023-05-14T14:38:51.725Z,7.77
2023-05-14T14:41:54.368Z,6.87
2023-05-14T14:44:56.489Z,7.43
2023-05-14T14:48:25.309Z,6.70
2023-05-14T14:51:28.031Z,6.70
2023-05-14T14:54:30.149Z,8.27
2023-05-14T14:57:32.322Z,7.10
2023-05-14T15:00:34.571Z,6.67
2023-05-14T15:03:36.905Z,7.87
2023-05-14T15:06:44.204Z,8.27
2023-05-14T15:09:46.330Z,8.50
2023-05-14T15:12:48.557Z,7.33
2023-05-14T15:15:52.449Z,7.40
2023-05-14T15:18:54.799Z,7.27
2023-05-14T15:21:57.050Z,7.13
2023-05-14T15:25:00.018Z,6.80
2023-05-14T15:28:02.110Z,6.30
2023-05-14T15:31:04.394Z,6.13
2023-05-14T15:34:07.140Z,6.00
2023-05-14T15:37:10.979Z,6.03
2023-05-14T15:40:13.513Z,6.90
2023-05-14T15:43:15.654Z,6.67
2023-05-14T15:46:17.891Z,7.30
2023-05-14T15:49:20.012Z,7.57
2023-05-14T15:52:23.257Z,6.67
2023-05-14T15:55:25.377Z,7.00
2023-05-14T15:58:28.309Z,7.97
2023-05-14T16:01:30.764Z,7.57
2023-05-14T16:04:32.872Z,6.90
2023-05-14T16:07:35.518Z,6.73
2023-05-14T16:10:37.876Z,6.17
2023-05-14T16:13:41.819Z,7.10
2023-05-14T16:16:43.999Z,6.73
2023-05-14T16:19:46.454Z,5.83
2023-05-14T16:22:48.772Z,5.53
2023-05-14T16:25:50.948Z,4.97
2023-05-14T16:28:53.160Z,5.30
2023-05-14T16:31:56.091Z,5.10
2023-05-14T16:34:58.639Z,5.00
2023-05-14T16:38:02.327Z,4.80
2023-05-14T16:41:07.336Z,4.63
2023-05-14T16:44:09.674Z,3.97
2023-05-14T16:47:11.932Z,5.17
2023-05-14T16:50:14.952Z,4.57
2023-05-14T16:53:17.124Z,4.30
2023-05-14T16:56:19.375Z,4.87
2023-05-14T16:59:21.696Z,5.17
2023-05-14T17:02:23.806Z,4.27
2023-05-14T17:05:27.037Z,4.90
2023-05-14T17:08:33.754Z,4.73
2023-05-14T17:11:36.499Z,4.20
2023-05-14T17:14:38.612Z,4.97
2023-05-14T17:17:41.575Z,4.30
2023-05-14T17:20:44.065Z,4.80
2023-05-14T17:23:46.286Z,4.53
2023-05-14T17:26:48.341Z,4.50
2023-05-14T17:29:51.409Z,4.70
2023-05-14T17:32:53.674Z,4.13
2023-05-14T17:35:55.978Z,4.10
2023-05-14T17:38:58.148Z,4.27
2023-05-14T17:42:00.793Z,3.90
2023-05-14T17:45:02.972Z,4.20
2023-05-14T17:48:05.394Z,4.13
2023-05-14T17:51:07.605Z,5.23
2023-05-14T17:54:09.795Z,4.43
2023-05-14T17:57:12.362Z,4.27
2023-05-14T18:00:14.906Z,3.40
2023-05-14T18:03:18.180Z,3.70
2023-05-14T18:06:20.539Z,3.80
2023-05-14T18:09:23.347Z,3.80
2023-05-14T18:12:26.875Z,3.70
2023-05-14T18:15:31.898Z,4.03
2023-05-14T18:18:34.482Z,3.63
2023-05-14T18:21:37.222Z,3.10
2023-05-14T18:24:39.505Z,3.60
2023-05-14T18:27:47.558Z,3.60
2023-05-14T18:30:50.313Z,3.77
2023-05-14T18:33:54.657Z,4.37
2023-05-14T18:36:57.822Z,3.50
2023-05-14T18:39:59.920Z,3.83
2023-05-14T18:43:02.457Z,4.53
2023-05-14T18:46:04.964Z,3.47
2023-05-14T18:49:07.425Z,4.77
2023-05-14T18:52:09.935Z,3.63
2023-05-14T18:55:12.380Z,4.20
2023-05-14T18:58:15.036Z,5.27
2023-05-14T19:01:17.514Z,4.37
2023-05-14T19:04:20.067Z,4.03
2023-05-14T19:07:22.950Z,4.47
2023-05-14T19:10:25.539Z,3.97
2023-05-14T19:13:28.829Z,5.40
2023-05-14T19:16:31.047Z,4.17
2023-05-14T19:19:33.622Z,4.10
2023-05-14T19:22:36.529Z,4.37
2023-05-14T19:25:38.842Z,4.17
2023-05-14T19:28:41.903Z,4.70
2023-05-14T19:31:44.127Z,4.07
2023-05-14T19:34:46.342Z,3.23
2023-05-14T19:37:48.502Z,3.20
2023-05-14T19:40:51.452Z,3.00
2023-05-14T19:43:54.034Z,2.80
2023-05-14T19:46:56.351Z,3.40
2023-05-14T19:49:58.628Z,3.30
2023-05-14T19:53:09.130Z,3.47
2023-05-14T19:56:11.473Z,3.30
2023-05-14T19:59:13.958Z,3.03
2023-05-14T20:02:18.847Z,2.90
2023-05-14T20:05:24.093Z,3.20
2023-05-14T20:08:27.078Z,3.17
2023-05-14T20:11:29.999Z,3.03
2023-05-14T20:14:32.645Z,3.20
2023-05-14T20:17:34.898Z,2.80
2023-05-14T20:20:37.761Z,3.73
2023-05-14T20:23:39.947Z,3.50
2023-05-14T20:26:42.257Z,3.43
2023-05-14T20:29:45.494Z,2.87
2023-05-14T20:32:47.596Z,2.70
2023-05-14T20:35:49.824Z,2.57
2023-05-14T20:38:52.977Z,3.20
2023-05-14T20:41:55.326Z,3.10
2023-05-14T20:44:57.586Z,3.03
2023-05-14T20:47:59.833Z,2.53
2023-05-14T20:51:02.016Z,2.87
2023-05-14T20:54:04.408Z,2.67
2023-05-14T20:57:06.981Z,2.70
2023-05-14T21:00:10.213Z,2.23
2023-05-14T21:03:12.501Z,3.53
2023-05-14T21:06:15.039Z,2.60
2023-05-14T21:09:17.196Z,2.53
2023-05-14T21:12:19.877Z,2.17
2023-05-14T21:15:22.010Z,3.13
2023-05-14T21:18:27.294Z,2.60
2023-05-14T21:21:30.736Z,2.70
2023-05-14T21:24:32.841Z,1.90
2023-05-14T21:27:35.153Z,1.90
2023-05-14T21:30:37.382Z,2.50
2023-05-14T21:33:41.002Z,2.37
2023-05-14T21:36:43.616Z,3.10
2023-05-14T21:39:46.091Z,3.23
2023-05-14T21:42:48.329Z,3.10
2023-05-14T21:45:50.756Z,2.80
2023-05-14T21:48:53.067Z,1.90
2023-05-14T21:51:55.317Z,2.00
2023-05-14T21:54:57.412Z,2.27
2023-05-14T21:58:00.173Z,1.80
2023-05-14T22:01:02.404Z,2.50
2023-05-14T22:04:05.245Z,1.73
2023-05-14T22:07:07.278Z,1.97
2023-05-14T22:10:10.051Z,1.27
2023-05-14T22:13:12.879Z,1.80
2023-05-14T22:16:15.286Z,2.43
2023-05-14T22:19:17.985Z,2.33
2023-05-14T22:22:20.177Z,2.67
2023-05-14T22:25:22.534Z,4.13
2023-05-14T22:28:24.980Z,5.00
2023-05-14T22:31:27.181Z,5.20
2023-05-14T22:34:29.218Z,4.37
2023-05-14T22:37:31.326Z,4.00
2023-05-14T22:40:33.899Z,4.60
2023-05-14T22:43:36.094Z,3.90
2023-05-14T22:46:38.633Z,4.50
2023-05-14T22:49:40.931Z,3.20
2023-05-14T22:52:43.034Z,3.70
2023-05-14T22:55:45.269Z,5.03
2023-05-14T22:58:47.968Z,6.40
2023-05-14T23:01:50.103Z,6.10
2023-05-14T23:04:52.784Z,5.47
2023-05-14T23:07:55.649Z,5.17
2023-05-14T23:10:57.800Z,5.90
2023-05-14T23:14:00.106Z,5.97
2023-05-14T23:17:02.864Z,5.23
2023-05-14T23:20:06.329Z,4.20
2023-05-14T23:23:08.640Z,3.47
2023-05-14T23:26:10.866Z,3.10
2023-05-14T23:29:13.536Z,1.90
2023-05-14T23:32:16.218Z,2.00
2023-05-14T23:35:19.173Z,1.90
2023-05-14T23:38:21.331Z,2.33
2023-05-14T23:41:23.636Z,2.20
2023-05-14T23:44:25.830Z,2.23
2023-05-14T23:47:28.246Z,1.80
2023-05-14T23:50:31.323Z,1.60
2023-05-14T23:53:33.692Z,2.00
2023-05-14T23:56:36.425Z,2.13
2023-05-14T23:59:40.340Z,1.80
